HOURLY OBS INDEX

014

Northern Rivers

BATCHELOR AIRPORT

Site: 014272
Alt: 104.0m
1km SSW of BATCHELOR


  Time     Wind        Temp  DP   Baro     Rain since   Rain past  Vis(m), Cloud(base in m), Weather
  local        km/h                         9am  last   hr   10m    
Wed 14:30    E  7/ 15  35.5  9.1  1008.8    0.0   0.0   0.0   0.0   ----- 
Wed 15:00    E 13/ 20  36.8  6.9  1008.3    0.0   0.0   0.0   0.0   ----- 
Wed 15:30   SE  9/ 20  36.4  4.6  1007.9    0.0   0.0   0.0   0.0   ----- 
Wed 16:00  ESE 15/ 20  36.1  4.4  1007.7    0.0   0.0   0.0   0.0   ----- 
Wed 16:30  ESE  7/ 15  36.4  5.6  1007.6    0.0   0.0   0.0   0.0   ----- 
Wed 17:00  ESE 17/ 28  35.9  5.2  1007.6    0.0   0.0   0.0   0.0   ----- 
Wed 17:30   SE  7/ 11  35.6  5.9  1007.7    0.0   0.0   0.0   0.0   ----- 
Wed 18:00  ESE  9/ 15  34.9  6.2  1008.1    0.0   0.0   0.0   0.0   ----- 
Wed 18:30    N 15/ 24  31.3 19.3  1008.7    0.0   0.0   0.0   0.0   ----- 
Wed 19:00  NNW 13/ 20  29.9 19.3  1009.3    0.0   0.0   0.0   0.0   ----- 
Wed 19:30   NW 11/ 17  29.1 18.5  1010.0    0.0   0.0   0.0   0.0   ----- 
Wed 20:00  WNW 11/ 24  28.5 19.4  1010.4    0.0   0.0   0.0   0.0   ----- 

BORROLOOLA AIRPORT

Site: 014723
Alt: 16.1m
1km SSE of BORROLOOLA


  Time     Wind        Temp  DP   Baro     Rain since   Rain past  Vis(m), Cloud(base in m), Weather
  local        km/h                         9am  last   hr   10m    
Wed 14:30    N 17/ 26  32.3 12.0  1010.3    0.0   0.0   0.0   0.0   ----- 
Wed 15:00   NE 20/ 24  32.4 11.6  1010.2    0.0   0.0   0.0   0.0   ----- 
Wed 15:30   NE 13/ 20  32.8 11.3  1010.0    0.0   0.0   0.0   0.0   ----- 
Wed 16:00    N 19/ 24  32.6 12.3  1010.0    0.0   0.0   0.0   0.0   ----- 
Wed 16:30  NNE 17/ 26  32.7 11.3  1010.1    0.0   0.0   0.0   0.0   ----- 
Wed 17:00  NNE 15/ 17  31.8 10.5  1010.1    0.0   0.0   0.0   0.0   ----- 
Wed 17:30    N 20/ 26  30.6 11.5  1010.4    0.0   0.0   0.0   0.0   ----- 
Wed 18:00  NNE 15/ 20  29.5 12.4  1010.5    0.0   0.0   0.0   0.0   ----- 
Wed 18:30  NNE 15/ 20  28.3 13.8  1010.9    0.0   0.0   0.0   0.0   ----- 
Wed 19:00  NNE 13/ 19  27.2 16.2  1011.3    0.0   0.0   0.0   0.0   ----- 
Wed 19:30  NNE 15/ 19  26.1 17.7  1011.6    0.0   0.0   0.0   0.0   ----- 
Wed 20:00  NNE 11/ 15  25.0 18.0  1012.0    0.0   0.0   0.0   0.0   ----- 

BRADSHAW

Site: 014954
Alt: 75.0m
133km S of NAUIYU (DALY RIVER)


  Time     Wind        Temp  DP   Baro     Rain since   Rain past  Vis(m), Cloud(base in m), Weather
  local        km/h                         9am  last   hr   10m    
Wed 14:30    S 15/ 20  37.4  2.0  1009.2    0.0   0.0   0.0   0.0   ----- 
Wed 15:00    W 11/ 15  37.5  2.1  1008.7    0.0   0.0   0.0   0.0   ----- 
Wed 15:30   SW 11/ 24  38.0  1.1  1008.2    0.0   0.0   0.0   0.0   ----- 
Wed 16:00  WSW  7/ 17  37.7  0.9  1007.8    0.0   0.0   0.0   0.0   ----- 
Wed 16:30  SSE 15/ 26  38.4  1.4  1007.7    0.0   0.0   0.0   0.0   ----- 
Wed 17:00  SSE 13/ 20  37.9  1.0  1007.7    0.0   0.0   0.0   0.0   ----- 
Wed 17:30  SSE  9/ 15  37.7  0.9  1007.8    0.0   0.0   0.0   0.0   ----- 
Wed 18:00    S  6/  9  37.3  1.9  1008.0    0.0   0.0   0.0   0.0   ----- 
Wed 18:30    E 11/ 17  36.9  1.6  1008.3    0.0   0.0   0.0   0.0   ----- 
Wed 19:00    E  9/ 13  36.0  0.9  1008.7    0.0   0.0   0.0   0.0   ----- 
Wed 19:30    E  9/ 11  35.0  1.4  1009.2    0.0   0.0   0.0   0.0   ----- 
Wed 20:00    E  7/  7  33.6  2.4  1009.7    0.0   0.0   0.0   0.0   ----- 

BRADSHAW-ANGALLARI VALLEY (DEFENCE)

Site: 014808
Alt: 60.0m
183km ENE of KUNUNURRA


  Time     Wind        Temp  DP   Baro     Rain since   Rain past  Vis(m), Cloud(base in m), Weather
  local        km/h                         9am  last   hr   10m    
Wed 14:30   SE  7/ 15  36.2  6.4  1008.7    0.0   0.0   0.0   0.0   ----- 
Wed 15:00  ENE  6/ 13  37.9  5.8  1008.2    0.0   0.0   0.0   0.0   ----- 
Wed 15:30    E  9/ 15  37.6  6.6  1007.7    0.0   0.0   0.0   0.0   ----- 
Wed 16:00  SSE  6/  9  37.0  6.1  1007.4    0.0   0.0   0.0   0.0   ----- 
Wed 16:30   SW  7/ 13  37.7  5.6  1007.2    0.0   0.0   0.0   0.0   ----- 
Wed 17:00    W  4/ 11  38.4  6.2  1007.2    0.0   0.0   0.0   0.0   ----- 
Wed 17:30  ESE  4/  7  37.3  5.3  1007.3    0.0   0.0   0.0   0.0   ----- 
Wed 18:00    E  4/  9  36.3  5.5  1007.6    0.0   0.0   0.0   0.0   ----- 
Wed 18:30    S  2/  6  35.1  5.5  1007.9    0.0   0.0   0.0   0.0   ----- 
Wed 19:00   SE  4/  4  32.8  5.4  1008.2    0.0   0.0   0.0   0.0   ----- 
Wed 19:30  SSE  4/  4  31.7  6.7  1008.6    0.0   0.0   0.0   0.0   ----- 
Wed 20:00  ESE  4/  4  30.3  6.2  1009.0    0.0   0.0   0.0   0.0   ----- 

BULMAN

Site: 014627
Alt: 103.4m
192km SE of JABIRU


  Time     Wind        Temp  DP   Baro     Rain since   Rain past  Vis(m), Cloud(base in m), Weather
  local        km/h                         9am  last   hr   10m    
Wed 14:30   NE 13/ 28  35.4  0.5  1009.8    0.0   0.0   0.0   0.0   ----- 
Wed 15:00  NNE 11/ 20  35.9  0.9  1009.4    0.0   0.0   0.0   0.0   ----- 
Wed 15:30   SE 20/ 26  35.5  1.8  1009.1    0.0   0.0   0.0   0.0   ----- 
Wed 16:00  ESE 15/ 22  35.9  3.2  1008.8    0.0   0.0   0.0   0.0   ----- 
Wed 16:30   SE 15/ 24  35.2  3.7  1008.7    0.0   0.0   0.0   0.0   ----- 
Wed 17:00    E 17/ 28  35.0  3.5  1008.8    0.0   0.0   0.0   0.0   ----- 
Wed 17:30    E 15/ 24  34.4  3.1  1008.9    0.0   0.0   0.0   0.0   ----- 
Wed 18:00    E 13/ 22  33.9  3.7  1009.3    0.0   0.0   0.0   0.0   ----- 
Wed 18:30    E  9/ 15  33.0  3.9  1009.6    0.0   0.0   0.0   0.0   ----- 
Wed 19:00  ENE  9/ 17  32.3  4.2  1010.1    0.0   0.0   0.0   0.0   ----- 
Wed 19:30  ENE  7/ 13  31.2  4.9  1010.5    0.0   0.0   0.0   0.0   ----- 
Wed 20:00  ENE  6/ 13  30.0  5.3  1011.1    0.0   0.0   0.0   0.0   ----- 

CENTRAL ARNHEM PLATEAU

Site: 014909
Alt: 416.0m
76km SSE of JABIRU


  Time     Wind        Temp  DP   Baro     Rain since   Rain past  Vis(m), Cloud(base in m), Weather
  local        km/h                         9am  last   hr   10m    
Wed 14:30   SE 20/ 32  34.4 -3.0  1011.2    0.0   0.0   0.0   0.0   ----- 
Wed 15:00   SE 24/ 30  34.0 -3.3  1010.8    0.0   0.0   0.0   0.0   ----- 
Wed 15:30   SE 24/ 39  34.6 -2.9  1010.6    0.0   0.0   0.0   0.0   ----- 
Wed 16:00  ESE 26/ 37  34.4 -3.0  1010.5    0.0   0.0   0.0   0.0   ----- 
Wed 16:30    E 20/ 30  33.9 -2.0  1010.4    0.0   0.0   0.0   0.0   ----- 
Wed 17:00    E 22/ 32  33.4 -2.3  1010.6    0.0   0.0   0.0   0.0   ----- 
Wed 17:30    E 20/ 37  33.1 -1.3  1010.8    0.0   0.0   0.0   0.0   ----- 
Wed 18:00    E 19/ 30  32.0 -0.9  1011.1    0.0   0.0   0.0   0.0   ----- 
Wed 18:30    E 17/ 26  30.8  0.2  1011.6    0.0   0.0   0.0   0.0   ----- 
Wed 19:00    E 13/ 17  29.9 -0.5  1012.1    0.0   0.0   0.0   0.0   ----- 
Wed 19:30    E  9/ 11  29.0 -0.2  1012.5    0.0   0.0   0.0   0.0   ----- 
Wed 20:00    E  6/  7  26.6 -1.3  1012.9    0.0   0.0   0.0   0.0   ----- 

CENTRE ISLAND

Site: 014703
Alt: 12.2m
66km ENE of BORROLOOLA


  Time     Wind        Temp  DP   Baro     Rain since   Rain past  Vis(m), Cloud(base in m), Weather
  local        km/h                         9am  last   hr   10m    
Wed 14:30   NE 17/ 24  28.2 19.7  1011.2    0.0   0.0   0.0   0.0   ----- 
Wed 15:00   NE 17/ 20  28.4 20.7  1010.8    0.0   0.0   0.0   0.0   ----- 
Wed 15:30   NE 17/ 22  28.4 20.4  1010.6    0.0   0.0   0.0   0.0   ----- 
Wed 16:00   NE 19/ 24  27.8 20.1  1010.7    0.0   0.0   0.0   0.0   ----- 
Wed 16:30   NE 19/ 26  27.4 20.0  1010.9    0.0   0.0   0.0   0.0   ----- 
Wed 17:00   NE 19/ 24  27.2 20.5  1011.0    0.0   0.0   0.0   0.0   ----- 
Wed 17:30  NNE 15/ 20  26.8 20.2  1011.0    0.0   0.0   0.0   0.0   ----- 
Wed 18:00  NNE 17/ 20  26.0 20.1  1011.1    0.0   0.0   0.0   0.0   ----- 
Wed 18:30  NNE 19/ 24  25.3 20.8  1011.3    0.0   0.0   0.0   0.0   ----- 
Wed 19:00   NE 24/ 30  25.4 21.1  1011.6    0.0   0.0   0.0   0.0   ----- 
Wed 19:30   NE 22/ 30  25.1 21.0  1011.7    0.0   0.0   0.0   0.0   ----- 
Wed 20:00   NE 20/ 26  24.9 21.2  1012.0    0.0   0.0   0.0   0.0   ----- 

CHARLES POINT

Site: 014031
Alt: 14.0m
24km WNW of DARWIN CBD


  Time     Wind        Temp  DP   Baro     Rain since   Rain past  Vis(m), Cloud(base in m), Weather
  local        km/h                         9am  last   hr   10m    
Wed 14:30  WNW 19/ 26  29.9 22.3  1009.2    0.0   0.0   0.0   0.0   ----- 
Wed 15:00  WNW 19/ 26  30.3 22.7  1008.9    0.0   0.0   0.0   0.0   ----- 
Wed 15:30  WNW 19/ 28  29.8 22.3  1008.7    0.0   0.0   0.0   0.0   ----- 
Wed 16:00  WNW 19/ 26  29.4 22.4  1008.5    0.0   0.0   0.0   0.0   ----- 
Wed 16:30  WNW 17/ 26  29.5 22.5  1008.4    0.0   0.0   0.0   0.0   ----- 
Wed 17:00  WNW 17/ 20  29.3 22.3  1008.3    0.0   0.0   0.0   0.0   ----- 
Wed 17:30  WNW 13/ 19  29.1 22.3  1008.6    0.0   0.0   0.0   0.0   ----- 
Wed 18:00  WNW 13/ 17  28.7 22.4  1008.9    0.0   0.0   0.0   0.0   ----- 
Wed 18:30    W  7/ 11  28.1 21.9  1009.2    0.0   0.0   0.0   0.0   ----- 
Wed 19:00    W  4/  7  27.6 21.9  1009.4    0.0   0.0   0.0   0.0   ----- 
Wed 19:30  WSW  4/  7  27.4 22.1  1009.9    0.0   0.0   0.0   0.0   ----- 
Wed 20:00   SW  6/  7  27.1 22.1  1010.2    0.0   0.0   0.0   0.0   ----- 

DALY WATERS AIRSTRIP

Site: 014626
Alt: 209.8m
1km E of DALY WATERS


  Time     Wind        Temp  DP   Baro     Rain since   Rain past  Vis(m), Cloud(base in m), Weather
  local        km/h                         9am  last   hr   10m    
Wed 14:30   NE 15/ 22  35.8  0.8  1010.3    0.0   0.0   0.0   0.0   ----- 
Wed 15:00  ENE  9/ 19  36.4  1.2  1010.0    0.0   0.0   0.0   0.0   ----- 
Wed 15:30   NE 13/ 22  36.2 -0.2  1009.6    0.0   0.0   0.0   0.0   ----- 
Wed 16:00   NW  6/ 15  36.4 -0.1  1009.4    0.0   0.0   0.0   0.0   ----- 
Wed 16:30  ESE 13/ 26  36.3  1.2  1009.2    0.0   0.0   0.0   0.0   ----- 
Wed 17:00   SE  9/ 17  35.9  0.9  1009.2    0.0   0.0   0.0   0.0   ----- 
Wed 17:30  ESE  7/ 13  35.4  1.7  1009.4    0.0   0.0   0.0   0.0   ----- 
Wed 18:00  ENE  6/  7  34.9  1.3  1009.6    0.0   0.0   0.0   0.0   ----- 
Wed 18:30    E  6/  9  32.6  1.7  1009.9    0.0   0.0   0.0   0.0   ----- 
Wed 19:00    C  0/  0  27.6 -0.5  1010.1    0.0   0.0   0.0   0.0   ----- 
Wed 19:30    C  0/  0  24.9  1.1  1010.4    0.0   0.0   0.0   0.0   ----- 
Wed 20:00    C  0/  0  22.4  1.4  1010.9    0.0   0.0   0.0   0.0   ----- 

DARWIN AIRPORT

Site: 014015
Alt: 30.4m
7km NE of DARWIN CBD


  Time     Wind        Temp  DP   Baro     Rain since   Rain past  Vis(m), Cloud(base in m), Weather
  local        km/h                         9am  last   hr   10m    
Wed 14:30   NW 24/ 32  30.9 20.7  1009.0    0.0   0.0   0.0   0.0  *10000|FE1200cu 
Wed 15:00   NW 26/ 33  31.1 21.1  1008.7    0.0   0.0   0.0   0.0  *10000|FE1200cu 
Wed 15:30  WNW 26/ 32  30.4 20.5  1008.6    0.0   0.0   0.0   0.0  *10000|FE1200cu 
Wed 16:00   NW 24/ 32  30.3 21.4  1008.3    0.0   0.0   0.0   0.0  *10000|FE1110cu 
Wed 16:30   NW 22/ 28  29.9 21.1  1008.3    0.0   0.0   0.0   0.0  *10000|FE1050cu 
Wed 16:30   NW 22/ 28  29.9 21.1  1008.3    0.0   0.0  ----   0.0  *10000|FE1050cu 
Wed 17:00   NW 20/ 26  30.1 21.7  1008.4    0.0   0.0   0.0   0.0  *10000|FE1050cu 
Wed 17:30  WNW 22/ 26  29.7 21.7  1008.5    0.0   0.0   0.0   0.0   10000 
Wed 17:30  WNW 22/ 26  29.7 21.7  1008.5    0.0   0.0  ----   0.0   10000 
Wed 18:00  WNW 19/ 22  28.9 21.3  1008.9    0.0   0.0   0.0   0.0   10000 
Wed 18:30  WNW 13/ 19  28.6 20.8  1009.1    0.0   0.0   0.0   0.0   10000 
Wed 19:00    W 11/ 15  28.2 22.0  1009.5    0.0   0.0   0.0   0.0   10000 
Wed 19:30    W 11/ 13  27.9 22.0  1009.9    0.0   0.0   0.0   0.0   10000 
Wed 20:00    W 11/ 13  27.8 21.8  1010.3    0.0   0.0   0.0   0.0   10000 

DARWIN NTC AWS

Site: 014072
Alt: 0.0m
1km S of DARWIN CBD


  Time     Wind        Temp  DP   Baro     Rain since   Rain past  Vis(m), Cloud(base in m), Weather
  local        km/h                         9am  last   hr   10m    
Wed 14:30  WNW 26/ 35  29.2----  1008.1   ----  ----  ----  ----   ----- 
Wed 15:00  WNW 24/ 37  29.3----  1007.8   ----  ----  ----  ----   ----- 
Wed 15:30   NW 22/ 33  29.4----  1007.7   ----  ----  ----  ----   ----- 
Wed 16:00  WNW 20/ 30  29.6----  1007.5   ----  ----  ----  ----   ----- 
Wed 16:30   NW 20/ 33  28.8----  1007.5   ----  ----  ----  ----   ----- 
Wed 17:00   NW 17/ 28  28.7----  1007.4   ----  ----  ----  ----   ----- 
Wed 17:30   NW 13/ 26  29.1----  1007.9   ----  ----  ----  ----   ----- 
Wed 18:00   NW 19/ 26  28.5----  1008.1   ----  ----  ----  ----   ----- 
Wed 18:30  WNW 15/ 22  28.4----  1008.4   ----  ----  ----  ----   ----- 
Wed 19:00  WNW 11/ 19  28.5----  1008.6   ----  ----  ----  ----   ----- 
Wed 19:30    W 13/ 17  28.5----  1009.2   ----  ----  ----  ----   ----- 
Wed 20:00    W 13/ 19  28.1----  1009.6   ----  ----  ----  ----   ----- 

DELAMERE WEAPONS RANGE

Site: 014949
Alt: 221.0m
165km WNW of DALY WATERS


  Time     Wind        Temp  DP   Baro     Rain since   Rain past  Vis(m), Cloud(base in m), Weather
  local        km/h                         9am  last   hr   10m    
Wed 14:30  SSE 13/ 20  36.0  2.1  1009.2    0.0   0.0   0.0   0.0   ----- 
Wed 15:00  ENE 15/ 22  35.9  2.1  1008.8    0.0   0.0   0.0   0.0   ----- 
Wed 15:30    E 17/ 24  36.1  2.2  1008.4    0.0   0.0   0.0   0.0   ----- 
Wed 16:00   NE  7/ 15  36.3  2.4  1008.1    0.0   0.0   0.0   0.0   -----|SC3600 
Wed 16:30  SSE  6/ 15  36.2  2.3  1008.0    0.0   0.0   0.0   0.0   ----- 
Wed 17:00   NE  7/ 15  36.5  1.3  1008.0    0.0   0.0   0.0   0.0   ----- 
Wed 17:30   SE 13/ 20  35.6  1.8  1008.1    0.0   0.0   0.0   0.0   ----- 
Wed 18:00   SE  2/  7  35.3  1.6  1008.3    0.0   0.0   0.0   0.0   ----- 
Wed 18:30    E 11/ 15  34.7  1.1  1008.7    0.0   0.0   0.0   0.0   ----- 
Wed 19:00    E  7/  9  33.3  1.2  1009.0    0.0   0.0   0.0   0.0   ----- 
Wed 19:30   NE  7/  9  32.0  2.1  1009.5    0.0   0.0   0.0   0.0   ----- 
Wed 20:00    E  6/  7  30.6  1.9  1010.0    0.0   0.0   0.0   0.0   ----- 

DOUGLAS RIVER RESEARCH FARM

Site: 014901
Alt: 42.8m
55km E of NAUIYU (DALY RIVER)


  Time     Wind        Temp  DP   Baro     Rain since   Rain past  Vis(m), Cloud(base in m), Weather
  local        km/h                         9am  last   hr   10m    
Wed 14:30    S 13/ 30  36.0  9.5  1008.7    0.0   0.0   0.0   0.0   ----- 
Wed 15:00    E 20/ 24  37.4  9.1  1008.1    0.0   0.0   0.0   0.0   ----- 
Wed 15:30  ESE 20/ 26  37.5  8.3  1007.8    0.0   0.0   0.0   0.0   ----- 
Wed 16:00   SW 13/ 20  37.0  7.9  1007.5    0.0   0.0   0.0   0.0   ----- 
Wed 16:30   SE  9/ 15  36.9  8.7  1007.3    0.0   0.0   0.0   0.0   ----- 
Wed 17:00    S 11/ 17  36.9  7.8  1007.3    0.0   0.0   0.0   0.0   ----- 
Wed 17:30  SSE 17/ 24  36.7  7.7  1007.4    0.0   0.0   0.0   0.0   ----- 
Wed 18:00   SE 11/ 13  35.6  7.6  1007.8    0.0   0.0   0.0   0.0   ----- 
Wed 18:30  SSE  9/ 13  33.1  9.2  1008.1    0.0   0.0   0.0   0.0   ----- 
Wed 19:00    S  7/  9  30.4 10.9  1008.5    0.0   0.0   0.0   0.0   ----- 
Wed 19:30    C  0/  6  29.1 11.2  1008.9    0.0   0.0   0.0   0.0   ----- 
Wed 20:00    C  0/  0  27.8 11.4  1009.2    0.0   0.0   0.0   0.0   ----- 

DUM IN MIRRIE AIRSTRIP

Site: 014277
Alt: 3.5m
55km WSW of DARWIN CBD


  Time     Wind        Temp  DP   Baro     Rain since   Rain past  Vis(m), Cloud(base in m), Weather
  local        km/h                         9am  last   hr   10m    
Wed 14:30    W 11/ 19  31.5 23.1  1008.9    0.0   0.0   0.0   0.0   ----- 
Wed 15:00    W 19/ 26  29.8 23.0  1008.6    0.0   0.0   0.0   0.0   ----- 
Wed 15:30    W 15/ 24  30.7 23.4  1008.3    0.0   0.0   0.0   0.0   ----- 
Wed 16:00    W 11/ 20  30.7 22.6  1007.8    0.0   0.0   0.0   0.0   ----- 
Wed 16:30    W  9/ 15  30.8 22.9  1007.8    0.0   0.0   0.0   0.0   ----- 
Wed 17:00    W  9/ 17  30.2 22.6  1007.8    0.0   0.0   0.0   0.0   ----- 
Wed 17:30    W 11/ 19  29.5 23.0  1007.9    0.0   0.0   0.0   0.0   ----- 
Wed 18:00  WNW  9/ 17  28.8 22.5  1008.3    0.0   0.0   0.0   0.0   ----- 
Wed 18:30  WNW  6/ 13  28.0 22.5  1008.6    0.0   0.0   0.0   0.0   ----- 
Wed 19:00  WNW  6/  9  27.6 22.8  1009.1    0.0   0.0   0.0   0.0   ----- 
Wed 19:30    W  6/ 11  27.5 22.7  1009.7    0.0   0.0   0.0   0.0   ----- 
Wed 20:00    W  4/  9  27.3 22.5  1010.1    0.0   0.0   0.0   0.0   ----- 

GOVE AIRPORT

Site: 014508
Alt: 51.6m
11km SSE of NHULUNBUY (GOVE)


  Time     Wind        Temp  DP   Baro     Rain since   Rain past  Vis(m), Cloud(base in m), Weather
  local        km/h                         9am  last   hr   10m    
Wed 14:30    E 22/ 30  29.9 19.5  1010.5    0.0   0.0   0.0   0.0  *10000|FE 900cu 
Wed 15:00    E 20/ 30  29.1 20.5  1010.2    0.0   0.0   0.0   0.0  *10000|SC 900cu 
Wed 15:30    E 22/ 30  29.1 20.0  1010.0    0.0   0.0   0.0   0.0  *10000|FE 780cu 
Wed 16:00  ESE 22/ 30  28.5 19.6  1010.0    0.0   0.0   0.0   0.0  *10000|SC 780cu 
Wed 16:30  ESE 20/ 30  29.2 20.1  1010.0    0.0   0.0   0.0   0.0   10000|SC 780 BR3300 
Wed 17:00    E 20/ 28  27.7 19.9  1010.1    0.0   0.0   0.0   0.0   10000|SC 780 BR3300 
Wed 17:30    E 19/ 24  27.0 20.3  1010.4    0.0   0.0   0.0   0.0   10000|SC 720 SC3600 
Wed 18:00  ESE 19/ 22  26.3 19.8  1010.7    0.0   0.0   0.0   0.0   10000|SC3600 
Wed 18:30  ESE 17/ 20  25.8 20.1  1011.0    0.0   0.0   0.0   0.0   10000|SC3600 
Wed 19:00  ESE 13/ 17  25.4 20.2  1011.2    0.0   0.0   0.0   0.0   10000 
Wed 19:30   SE 11/ 15  25.0 20.2  1011.6    0.0   0.0   0.0   0.0   10000 
Wed 20:00   SE 11/ 13  24.4 20.4  1011.9    0.0   0.0   0.0   0.0   10000 

GROOTE EYLANDT AIRPORT

Site: 014518
Alt: 13.7m
202km S of NHULUNBUY (GOVE)


  Time     Wind        Temp  DP   Baro     Rain since   Rain past  Vis(m), Cloud(base in m), Weather
  local        km/h                         9am  last   hr   10m    
Wed 14:30  NNE 20/ 26  32.7 14.8  1009.6    0.0   0.0   0.0   0.0   10000 
Wed 15:00  ENE 19/ 30  32.2 15.7  1009.3    0.0   0.0   0.0   0.0   10000 
Wed 15:30  ESE 17/ 28  33.1 13.7  1009.3    0.0   0.0   0.0   0.0   10000 
Wed 16:00   SW 11/ 20  31.1 19.8  1009.3    0.0   0.0   0.0   0.0   10000|SC1830 
Wed 16:30  SSW 11/ 20  30.8 19.8  1009.5    0.0   0.0   0.0   0.0   10000|SC1260 BR1470 BR1770 
Wed 17:00  SSW 13/ 19  28.7 21.7  1009.9    0.0   0.0   0.0   0.0   10000|SC1080 SC1260 BR1470 
Wed 17:30  SSW 11/ 15  28.0 21.5  1010.3    0.0   0.0   0.0   0.0   10000|BR1020 BR1290 BR1500 
Wed 18:00   SE  9/ 17  28.2 20.2  1010.4    0.0   0.0   0.0   0.0   10000|SC 780 BR1020 
Wed 18:30    E 15/ 17  27.2 20.0  1010.7    0.0   0.0   0.0   0.0   10000 
Wed 19:00    E 15/ 19  26.5 19.9  1011.2    0.0   0.0   0.0   0.0   10000 
Wed 19:30  ESE 13/ 17  26.1 20.7  1011.6    0.0   0.0   0.0   0.0   10000 
Wed 20:00   SE  7/ 11  25.1 20.8  1012.1    0.0   0.0   0.0   0.0   10000 

GUNN POINT

Site: 014023
Alt: 25.0m
32km NE of DARWIN CBD


  Time     Wind        Temp  DP   Baro     Rain since   Rain past  Vis(m), Cloud(base in m), Weather
  local        km/h                         9am  last   hr   10m    
Wed 14:30  WNW 13/ 20  30.1 19.8  1009.4    0.0   0.0   0.0   0.0   ----- 
Wed 15:00    W 15/ 22  30.3 20.5  1009.1    0.0   0.0   0.0   0.0   ----- 
Wed 15:30    W 13/ 22  30.5 20.7  1008.7    0.0   0.0   0.0   0.0   ----- 
Wed 16:00    W 13/ 24  30.4 20.9  1008.5    0.0   0.0   0.0   0.0   ----- 
Wed 16:30    W 13/ 20  30.3 21.1  1008.4    0.0   0.0   0.0   0.0   ----- 
Wed 17:00  WNW  9/ 15  29.6 20.7  1008.4    0.0   0.0   0.0   0.0   ----- 
Wed 17:30  WNW  7/ 15  29.3 21.0  1008.6    0.0   0.0   0.0   0.0   ----- 
Wed 18:00    W  6/ 11  28.9 20.6  1009.0    0.0   0.0   0.0   0.0   ----- 
Wed 18:30  WNW  6/  9  27.9 20.7  1009.1    0.0   0.0   0.0   0.0   ----- 
Wed 19:00   NW  2/  4  27.0 19.9  1009.4    0.0   0.0   0.0   0.0   ----- 
Wed 19:30    C  0/  0  24.7 17.9  1009.9    0.0   0.0   0.0   0.0   ----- 
Wed 20:00    C  0/  0  23.3 18.4  1010.2    0.0   0.0   0.0   0.0   ----- 

JABIRU AIRPORT

Site: 014198
Alt: 26.5m
1km NW of JABIRU


  Time     Wind        Temp  DP   Baro     Rain since   Rain past  Vis(m), Cloud(base in m), Weather
  local        km/h                         9am  last   hr   10m    
Wed 14:30  SSE  7/ 15  36.4  3.6  1008.3    0.0   0.0   0.0   0.0   ----- 
Wed 15:00    E 11/ 20  37.4  3.2  1007.9    0.0   0.0   0.0   0.0   ----- 
Wed 15:30    E 19/ 30  37.1  1.8  1007.5    0.0   0.0   0.0   0.0   ----- 
Wed 16:00  SSE 13/ 17  36.8  2.8  1007.2    0.0   0.0   0.0   0.0   ----- 
Wed 16:30    E 15/ 22  37.0  2.9  1007.1    0.0   0.0   0.0   0.0   ----- 
Wed 17:00    E 17/ 22  36.9  2.8  1007.1    0.0   0.0   0.0   0.0   ----- 
Wed 17:30  ESE 13/ 20  36.3  2.4  1007.3    0.0   0.0   0.0   0.0   ----- 
Wed 18:00    E 13/ 17  35.8  2.0  1007.6    0.0   0.0   0.0   0.0   ----- 
Wed 18:30  ESE 13/ 20  34.1  0.7  1008.2    0.0   0.0   0.0   0.0   ----- 
Wed 19:00    E  9/ 13  32.7  0.7  1008.9    0.0   0.0   0.0   0.0   ----- 
Wed 19:30    N 15/ 22  29.3 18.4  1009.8    0.0   0.0   0.0   0.0   ----- 
Wed 20:00  NNW 13/ 19  28.7 19.1  1010.4    0.0   0.0   0.0   0.0   ----- 

KANGAROO FLATS (DEFENCE)

Site: 014982
Alt: 50.0m
37km S of DARWIN


  Time     Wind        Temp  DP   Baro     Rain since   Rain past  Vis(m), Cloud(base in m), Weather
  local        km/h                         9am  last   hr   10m    
Wed 14:30    E 11/ 24  36.9  9.5  ------    0.0   0.0   0.0   0.0   ----- 
Wed 15:00    E  9/ 19  36.8  9.4  ------    0.0   0.0   0.0   0.0   ----- 
Wed 15:30    E  7/ 17  36.8  9.4  ------    0.0   0.0   0.0   0.0   ----- 
Wed 16:00    E  9/ 17  37.0  8.8  ------    0.0   0.0   0.0   0.0   ----- 
Wed 16:30   NW 11/ 20  33.0 20.5  ------    0.0   0.0   0.0   0.0   ----- 
Wed 17:00   NW 13/ 24  32.4 21.0  ------    0.0   0.0   0.0   0.0   ----- 
Wed 17:30   NW 13/ 24  31.5 20.4  ------    0.0   0.0   0.0   0.0   ----- 
Wed 18:00   NW 11/ 19  30.9 20.2  ------    0.0   0.0   0.0   0.0   ----- 
Wed 18:30   NW  9/ 19  30.1 20.1  ------    0.0   0.0   0.0   0.0   ----- 
Wed 19:00   NW  6/ 11  29.3 20.2  ------    0.0   0.0   0.0   0.0   ----- 
Wed 19:30  WNW  6/ 13  28.5 21.3  ------    0.0   0.0   0.0   0.0   ----- 
Wed 20:00    W  4/  9  28.0 22.0  ------    0.0   0.0   0.0   0.0   ----- 

MANINGRIDA AIRPORT

Site: 014405
Alt: 28.1m
160km ENE of JABIRU


  Time     Wind        Temp  DP   Baro     Rain since   Rain past  Vis(m), Cloud(base in m), Weather
  local        km/h                         9am  last   hr   10m    
Wed 14:30    N 20/ 28  30.1 17.2  1009.4    0.0   0.0   0.0   0.0   10000 
Wed 15:00    N 20/ 28  29.2 18.3  1009.0    0.0   0.0   0.0   0.0   10000 
Wed 15:30    N 20/ 28  29.2 18.0  1008.6    0.0   0.0   0.0   0.0   10000 
Wed 16:00    N 17/ 22  29.3 19.3  1008.5    0.0   0.0   0.0   0.0   10000 
Wed 16:30    N 17/ 24  28.4 19.6  1008.5    0.0   0.0   0.0   0.0   10000 
Wed 17:00    N 15/ 20  28.3 20.1  1008.4    0.0   0.0   0.0   0.0   10000 
Wed 17:30    N 13/ 19  27.5 19.8  1008.7    0.0   0.0   0.0   0.0   10000 
Wed 18:00    N 13/ 17  27.2 20.0  1008.9    0.0   0.0   0.0   0.0   10000 
Wed 18:30    N 13/ 20  26.6 20.4  1009.2    0.0   0.0   0.0   0.0   10000 
Wed 19:00  NNE 11/ 15  26.3 20.6  1009.6    0.0   0.0   0.0   0.0   10000 
Wed 19:30  NNE  9/ 13  26.0 21.0  1010.1    0.0   0.0   0.0   0.0   10000 
Wed 20:00  NNE  9/ 11  25.8 21.0  1010.5    0.0   0.0   0.0   0.0   10000 

MCARTHUR RIVER MINE AIRPORT

Site: 014704
Alt: 40.0m
48km SSW of BORROLOOLA


  Time     Wind        Temp  DP   Baro     Rain since   Rain past  Vis(m), Cloud(base in m), Weather
  local        km/h                         9am  last   hr   10m    
Wed 14:30  NNE 19/ 32  34.4  6.7  1010.0    0.0   0.0   0.0   0.0   10000 
Wed 15:00  NNE 13/ 26  34.6  6.8  1009.8    0.0   0.0   0.0   0.0   10000 
Wed 15:30  ENE 15/ 30  34.7  6.1  1009.5    0.0   0.0   0.0   0.0   10000 
Wed 16:00  ENE 13/ 20  34.7  3.3  1009.5    0.0   0.0   0.0   0.0   10000 
Wed 16:30  NNE 19/ 30  33.8  7.7  1009.5    0.0   0.0   0.0   0.0   10000 
Wed 17:00  NNE 15/ 24  34.1  7.2  1009.4    0.0   0.0   0.0   0.0   10000 
Wed 17:30  NNE 17/ 28  33.2  7.2  1009.6    0.0   0.0   0.0   0.0   10000 
Wed 18:00  NNE 17/ 30  31.9  8.2  1009.7    0.0   0.0   0.0   0.0   10000 
Wed 18:30  NNE 15/ 26  30.9  9.7  1010.3    0.0   0.0   0.0   0.0   10000 
Wed 19:00  NNE 15/ 24  29.9 10.5  1010.8    0.0   0.0   0.0   0.0   10000 
Wed 19:30  NNE 17/ 28  29.2 11.3  1011.1    0.0   0.0   0.0   0.0   10000 
Wed 20:00  NNE 15/ 24  28.6 11.2  1011.5    0.0   0.0   0.0   0.0   10000 

MCCLUER ISLAND

Site: 014274
Alt: 1.4m
180km N of JABIRU


  Time     Wind        Temp  DP   Baro     Rain since   Rain past  Vis(m), Cloud(base in m), Weather
  local        km/h                         9am  last   hr   10m    
Wed 14:30    E 22/ 26  28.1----  1009.7    0.0   0.0   0.0   0.0   ----- 
Wed 15:00    E 22/ 24  28.0----  1009.4    0.0   0.0   0.0   0.0   ----- 
Wed 15:30    E 22/ 26  27.9----  1009.3    0.0   0.0   0.0   0.0   ----- 
Wed 16:00    E 22/ 26  27.7----  1009.0    0.0   0.0   0.0   0.0   ----- 
Wed 16:30    E 24/ 30  27.6----  1008.8    0.0   0.0   0.0   0.0   ----- 
Wed 17:00    E 26/ 30  27.0----  1008.7    0.0   0.0   0.0   0.0   ----- 
Wed 17:30    E 24/ 28  27.1----  1008.7    0.0   0.0   0.0   0.0   ----- 
Wed 18:00  ENE 24/ 30  27.0----  1008.8    0.0   0.0   0.0   0.0   ----- 
Wed 18:30  ENE 28/ 32  27.0----  1009.1    0.0   0.0   0.0   0.0   ----- 
Wed 19:00  ENE 28/ 33  26.6----  1009.2    0.0   0.0   0.0   0.0   ----- 
Wed 19:30  ENE 30/ 33  26.7----  1009.5    0.0   0.0   0.0   0.0   ----- 
Wed 20:00   NE 28/ 33  26.6----  1010.0    0.0   0.0   0.0   0.0   ----- 

MIDDLE POINT

Site: 014041
Alt: 14.1m
52km ESE of DARWIN CBD


  Time     Wind        Temp  DP   Baro     Rain since   Rain past  Vis(m), Cloud(base in m), Weather
  local        km/h                         9am  last   hr   10m    
Wed 14:30  ENE 13/ 26  36.4 11.3  1008.3    0.0   0.0   0.0   0.0   ----- 
Wed 15:00  ENE 11/ 24  36.0 10.9  1007.9    0.0   0.0   0.0   0.0   ----- 
Wed 15:30   NE 13/ 19  36.7 12.2  1007.5    0.0   0.0   0.0   0.0   ----- 
Wed 16:00    N 19/ 22  34.3 19.1  1007.3    0.0   0.0   0.0   0.0   ----- 
Wed 16:30    N 17/ 24  33.9 19.6  1007.3    0.0   0.0   0.0   0.0   ----- 
Wed 17:00    N 19/ 24  32.7 19.9  1007.4    0.0   0.0   0.0   0.0   ----- 
Wed 17:30   NW 15/ 19  31.9 21.1  1007.7    0.0   0.0   0.0   0.0   ----- 
Wed 18:00   NW 15/ 22  30.7 21.5  1008.1    0.0   0.0   0.0   0.0   ----- 
Wed 18:30   NW 13/ 19  29.4 21.6  1008.5    0.0   0.0   0.0   0.0   ----- 
Wed 19:00  NNW 11/ 15  28.4 21.7  1009.1    0.0   0.0   0.0   0.0   ----- 
Wed 19:30  NNW  7/ 11  27.6 21.6  1009.5    0.0   0.0   0.0   0.0   ----- 
Wed 20:00  NNW  7/ 11  26.6 21.4  1009.9    0.0   0.0   0.0   0.0   ----- 

MILINGIMBI AIRPORT

Site: 014404
Alt: 15.0m
205km W of NHULUNBUY (GOVE)


  Time     Wind        Temp  DP   Baro     Rain since   Rain past  Vis(m), Cloud(base in m), Weather
  local        km/h                         9am  last   hr   10m    
Wed 14:30  NNW 15/ 20  30.8 20.1  1009.7    0.0   0.0   0.0   0.0   ----- 
Wed 15:00    N 13/ 22  30.2 20.4  1009.3    0.0   0.0   0.0   0.0   ----- 
Wed 15:30    N 13/ 19  29.5 20.4  1008.9    0.0   0.0   0.0   0.0   ----- 
Wed 16:00  NNW 15/ 20  29.7 20.5  1008.8    0.0   0.0   0.0   0.0   ----- 
Wed 16:30  NNE 17/ 26  28.7 20.7  1008.8    0.0   0.0   0.0   0.0   ----- 
Wed 17:00  NNE 13/ 26  28.3 20.8  1008.9    0.0   0.0   0.0   0.0   ----- 
Wed 17:30    N 13/ 22  27.6 21.2  1009.2    0.0   0.0   0.0   0.0   ----- 
Wed 18:00  NNE 11/ 22  27.3 21.6  1009.4    0.0   0.0   0.0   0.0   ----- 
Wed 18:30  NNE 13/ 24  26.9 21.6  1009.7    0.0   0.0   0.0   0.0   ----- 
Wed 19:00   NE  7/ 15  26.6 21.8  1010.2    0.0   0.0   0.0   0.0   ----- 
Wed 19:30   NE  9/ 17  26.5 21.9  1010.6    0.0   0.0   0.0   0.0   ----- 
Wed 20:00   NE 11/ 20  26.4 21.8  1010.9    0.0   0.0   0.0   0.0   ----- 

MOUNT BUNDEY NORTH (DEFENCE)

Site: 014983
Alt: 83.0m
122km WNW of DARWIN


  Time     Wind        Temp  DP   Baro     Rain since   Rain past  Vis(m), Cloud(base in m), Weather
  local        km/h                         9am  last   hr   10m    
Wed 14:30   SE 11/ 26  36.4  7.4  ------    0.0   0.0   0.0   0.0   ----- 
Wed 15:00  SSE 11/ 22  36.2  6.4  ------    0.0   0.0   0.0   0.0   ----- 
Wed 15:30    E  9/ 20  36.4  7.4  ------    0.0   0.0   0.0   0.0   ----- 
Wed 16:00    E  9/ 24  36.5  7.5  ------    0.0   0.0   0.0   0.0   ----- 
Wed 16:30  SSE  9/ 20  36.0  8.0  ------    0.0   0.0   0.0   0.0   ----- 
Wed 17:00  ESE 11/ 19  36.1  8.0  ------    0.0   0.0   0.0   0.0   ----- 
Wed 17:30   NE  6/  9  35.2  8.1  ------    0.0   0.0   0.0   0.0   ----- 
Wed 18:00  ESE  7/ 15  34.9  8.6  ------    0.0   0.0   0.0   0.0   ----- 
Wed 18:30  ESE  2/  4  33.5  8.9  ------    0.0   0.0   0.0   0.0   ----- 
Wed 19:00    C  0/  0  32.5  9.3  ------    0.0   0.0   0.0   0.0   ----- 
Wed 19:30  NNW 13/ 24  29.1 17.9  ------    0.0   0.0   0.0   0.0   ----- 
Wed 20:00  NNW  7/ 17  28.4 17.6  ------    0.0   0.0   0.0   0.0   ----- 

MOUNT BUNDEY SOUTH (DEFENCE)

Site: 014984
Alt: 44.0m
130km SE of DARWIN


  Time     Wind        Temp  DP   Baro     Rain since   Rain past  Vis(m), Cloud(base in m), Weather
  local        km/h                         9am  last   hr   10m    
Wed 14:30  ESE 13/ 22  36.2  6.4  1010.3    0.0   0.0   0.0   0.0   ----- 
Wed 15:00   SE  9/ 22  36.8  6.9  1009.7    0.0   0.0   0.0   0.0   ----- 
Wed 15:30   SE  7/ 15  36.9  7.0  1009.3    0.0   0.0   0.0   0.0   ----- 
Wed 16:00  SSE 13/ 24  36.7  6.8  1009.0    0.0   0.0   0.0   0.0   ----- 
Wed 16:30  SSE  7/ 19  36.5  6.6  1008.9    0.0   0.0   0.0   0.0   ----- 
Wed 17:00  ESE  9/ 15  36.5  6.6  1008.8    0.0   0.0   0.0   0.0   ----- 
Wed 17:30   SE  6/ 13  36.3  6.5  1008.9    0.0   0.0   0.0   0.0   ----- 
Wed 18:00  ESE  7/ 11  36.0  5.3  1009.2    0.0   0.0   0.0   0.0   ----- 
Wed 18:30   NE  6/  9  34.9  7.9  1009.5    0.0   0.0   0.0   0.0   ----- 
Wed 19:00   NE  2/  4  32.7  8.9  1009.8    0.0   0.0   0.0   0.0   ----- 
Wed 19:30    C  0/  0  30.6  8.9  1010.4    0.0   0.0   0.0   0.0   ----- 
Wed 20:00  NNW  9/ 22  30.0 17.1  1011.4    0.0   0.0   0.0   0.0   ----- 

MURGANELLA AIRSTRIP

Site: 014309
Alt: 9.5m
124km N of JABIRU


  Time     Wind        Temp  DP   Baro     Rain since   Rain past  Vis(m), Cloud(base in m), Weather
  local        km/h                         9am  last   hr   10m    
Wed 14:30  ENE 15/ 24  30.5 16.5  1009.7    0.0   0.0   0.0   0.0   ----- 
Wed 15:00  ENE 11/ 24  31.0 16.2  1009.3    0.0   0.0   0.0   0.0   ----- 
Wed 15:30   NE  9/ 17  30.4 18.2  1008.9    0.0   0.0   0.0   0.0   ----- 
Wed 16:00   NE 15/ 26  29.6 19.3  1008.7    0.0   0.0   0.0   0.0   ----- 
Wed 16:30   NE 11/ 19  29.4 20.0  1008.4    0.0   0.0   0.0   0.0   ----- 
Wed 17:00  NNE 15/ 24  28.1 19.3  1008.4    0.0   0.0   0.0   0.0   ----- 
Wed 17:30   NE 13/ 24  27.8 19.6  1008.6    0.0   0.0   0.0   0.0   ----- 
Wed 18:00   NE  9/ 19  27.2 19.0  1009.0    0.0   0.0   0.0   0.0   ----- 
Wed 18:30    N  2/  6  26.2 19.1  1009.3    0.0   0.0   0.0   0.0   ----- 
Wed 19:00    C  0/  2  24.8 19.0  1009.7    0.0   0.0   0.0   0.0   ----- 
Wed 19:30    C  0/  0  23.2 18.5  1010.1    0.0   0.0   0.0   0.0   ----- 
Wed 20:00    C  0/  0  22.3 18.5  1010.4    0.0   0.0   0.0   0.0   ----- 

NGAYAWILI

Site: 014517
Alt: 8.1m
133km W of NHULUNBUY (GOVE)


  Time     Wind        Temp  DP   Baro     Rain since   Rain past  Vis(m), Cloud(base in m), Weather
  local        km/h                         9am  last   hr   10m    
Wed 14:30  NNE 28/ 35  31.3 21.5  1009.3    0.0   0.0   0.0   0.0   ----- 
Wed 15:00    N 28/ 35  30.8 21.0  1008.8    0.0   0.0   0.0   0.0   ----- 
Wed 15:30  NNE 26/ 33  30.7 21.2  1008.5    0.0   0.0   0.0   0.0   ----- 
Wed 16:00  NNE 26/ 39  30.2 21.0  1008.4    0.0   0.0   0.0   0.0   ----- 
Wed 16:30  NNE 28/ 39  29.2 21.2  1008.4    0.0   0.0   0.0   0.0   ----- 
Wed 17:00  NNE 24/ 35  29.1 20.5  1008.5    0.0   0.0   0.0   0.0   ----- 
Wed 17:30  NNE 20/ 33  28.1 21.6  1008.7    0.0   0.0   0.0   0.0   ----- 
Wed 18:00   NE 17/ 30  27.4 21.0  1009.1    0.0   0.0   0.0   0.0   ----- 
Wed 18:30  ENE 15/ 26  26.9 20.5  1009.5    0.0   0.0   0.0   0.0   ----- 
Wed 19:00  ENE 19/ 28  26.5 21.3  1009.9    0.0   0.0   0.0   0.0   ----- 
Wed 19:30  ENE 13/ 20  26.1 21.7  1010.5    0.0   0.0   0.0   0.0   ----- 
Wed 20:00  ENE 11/ 15  25.7 21.6  1010.8    0.0   0.0   0.0   0.0   ----- 

NGUKURR AIRPORT

Site: 014299
Alt: 14.5m
224km NW of BORROLOOLA


  Time     Wind        Temp  DP   Baro     Rain since   Rain past  Vis(m), Cloud(base in m), Weather
  local        km/h                         9am  last   hr   10m    
Wed 14:30  ENE 20/ 32  35.2  5.6  1009.5    0.0   0.0   0.0   0.0   ----- 
Wed 15:00   NE  6/ 17  35.0  7.9  1009.2    0.0   0.0   0.0   0.0   ----- 
Wed 15:30   NE 13/ 22  35.5  2.9  1009.0    0.0   0.0   0.0   0.0   ----- 
Wed 16:00    E 20/ 32  35.5 -3.8  1008.9    0.0   0.0   0.0   0.0   ----- 
Wed 16:30  ESE 20/ 30  35.2 -2.4  1009.0    0.0   0.0   0.0   0.0   ----- 
Wed 17:00    E 19/ 30  34.8 -2.7  1009.1    0.0   0.0   0.0   0.0   ----- 
Wed 17:30  ESE 17/ 24  34.1 -0.5  1009.5    0.0   0.0   0.0   0.0   ----- 
Wed 18:00    E 13/ 19  32.8  2.8  1009.9    0.0   0.0   0.0   0.0   ----- 
Wed 18:30  ESE 11/ 17  30.8 11.2  1010.5    0.0   0.0   0.0   0.0   ----- 
Wed 19:00  ESE 11/ 17  29.2 13.4  1010.8    0.0   0.0   0.0   0.0   ----- 
Wed 19:30    E 11/ 15  28.0 15.6  1011.2    0.0   0.0   0.0   0.0   ----- 
Wed 20:00    E 15/ 22  27.2 16.2  1011.7    0.0   0.0   0.0   0.0   ----- 

NOONAMAH AIRSTRIP

Site: 014314
Alt: 17.5m
km of


  Time     Wind        Temp  DP   Baro     Rain since   Rain past  Vis(m), Cloud(base in m), Weather
  local        km/h                         9am  last   hr   10m    
Wed 14:30   SE  9/ 24  36.5  9.2  1008.0    0.0   0.0   0.0   0.0   ----- 
Wed 15:00    E  9/ 15  36.6  6.7  1007.6    0.0   0.0   0.0   0.0   ----- 
Wed 15:30    N 19/ 26  34.3 18.8  1007.4    0.0   0.0   0.0   0.0   ----- 
Wed 16:00   NW 15/ 26  33.5 20.6  1007.1    0.0   0.0   0.0   0.0   ----- 
Wed 16:30   NW 19/ 28  32.6 20.5  1007.2    0.0   0.0   0.0   0.0   ----- 
Wed 17:00  NNW 13/ 24  32.5 20.7  1007.4    0.0   0.0   0.0   0.0   ----- 
Wed 17:30   NW 15/ 22  31.5 21.1  1007.7    0.0   0.0   0.0   0.0   ----- 
Wed 18:00  WNW 11/ 22  30.6 21.1  1008.2    0.0   0.0   0.0   0.0   ----- 
Wed 18:30   NW 11/ 17  29.7 20.0  1008.5    0.0   0.0   0.0   0.0   ----- 
Wed 19:00   NW  9/ 13  29.1 21.3  1008.8    0.0   0.0   0.0   0.0   ----- 
Wed 19:30  NNW  6/ 11  28.5 22.0  1009.3    0.0   0.0   0.0   0.0   ----- 
Wed 20:00   NW  4/  6  28.1 22.3  1009.7    0.0   0.0   0.0   0.0   ----- 

OENPELLI AIRPORT

Site: 014310
Alt: 7.5m
39km NNE of JABIRU


  Time     Wind        Temp  DP   Baro     Rain since   Rain past  Vis(m), Cloud(base in m), Weather
  local        km/h                         9am  last   hr   10m    
Wed 14:30    E 13/ 20  35.9  7.9  1008.6    0.0   0.0   0.0   0.0   ----- 
Wed 15:00   NE 11/ 22  36.5  7.5  1008.1    0.0   0.0   0.0   0.0   ----- 
Wed 15:30    E 13/ 24  36.5  5.7  1007.6    0.0   0.0   0.0   0.0   ----- 
Wed 16:00   NE 13/ 19  36.4  5.6  1007.5    0.0   0.0   0.0   0.0   ----- 
Wed 16:30  ENE 13/ 19  36.1  4.4  1007.3    0.0   0.0   0.0   0.0   ----- 
Wed 17:00   SE 13/ 20  36.0  3.3  1007.3    0.0   0.0   0.0   0.0   ----- 
Wed 17:30  ESE  9/ 17  35.8  2.0  1007.5    0.0   0.0   0.0   0.0   ----- 
Wed 18:00   NE 15/ 24  32.1 14.7  1008.0    0.0   0.0   0.0   0.0   ----- 
Wed 18:30  NNE 13/ 19  29.8 17.3  1008.9    0.0   0.0   0.0   0.0   ----- 
Wed 19:00    N  9/ 19  28.8 17.7  1009.3    0.0   0.0   0.0   0.0   ----- 
Wed 19:30  NNE  4/  7  27.3 17.8  1010.0    0.0   0.0   0.0   0.0   ----- 
Wed 20:00    N  6/  9  27.2 15.9  1010.6    0.0   0.0   0.0   0.0   ----- 

PIRLANGIMPI AIRPORT

Site: 014142
Alt: 18.3m
28km W of PULARUMPI (MELVILLE/BATHURST ISLANDS)


  Time     Wind        Temp  DP   Baro     Rain since   Rain past  Vis(m), Cloud(base in m), Weather
  local        km/h                         9am  last   hr   10m    
Wed 14:30  NNW 13/ 22  31.5 19.8  1009.5    0.0   0.0   0.0   0.0   ----- 
Wed 15:00   NW 13/ 22  31.1 20.1  1009.3    0.0   0.0   0.0   0.0   ----- 
Wed 15:30  NNW  9/ 19  30.4 19.4  1009.1    0.0   0.0   0.0   0.0   ----- 
Wed 16:00  NNW  9/ 17  31.0 20.3  1008.8    0.0   0.0   0.0   0.0   ----- 
Wed 16:30   NW  9/ 17  29.8 19.8  1008.6    0.0   0.0   0.0   0.0   ----- 
Wed 17:00  NNW  9/ 17  30.4 20.3  1008.6    0.0   0.0   0.0   0.0   ----- 
Wed 17:30    N  7/ 11  29.7 20.3  1008.9    0.0   0.0   0.0   0.0   ----- 
Wed 18:00  NNW  7/ 13  28.8 20.3  1009.3    0.0   0.0   0.0   0.0   ----- 
Wed 18:30    N  4/  7  28.0 20.0  1009.6    0.0   0.0   0.0   0.0   ----- 
Wed 19:00    N  2/  4  27.0 19.6  1009.8    0.0   0.0   0.0   0.0   ----- 
Wed 19:30  NNE  2/  4  25.9 19.1  1010.1    0.0   0.0   0.0   0.0   ----- 
Wed 20:00  NNE  2/  4  25.2 18.9  1010.5    0.0   0.0   0.0   0.0   ----- 

POINT STUART

Site: 014254
Alt: 1.0m
115km ENE of DARWIN CBD


  Time     Wind        Temp  DP   Baro     Rain since   Rain past  Vis(m), Cloud(base in m), Weather
  local        km/h                         9am  last   hr   10m    
Wed 14:30    N 17/ 26  31.6 18.9  1008.9    0.0   0.0   0.0   0.0   ----- 
Wed 15:00    N 19/ 28  31.1 19.4  1008.6    0.0   0.0   0.0   0.0   ----- 
Wed 15:30    N 15/ 24  31.7 19.3  1008.2    0.0   0.0   0.0   0.0   ----- 
Wed 16:00  NNW 15/ 26  32.7 20.6  1007.9    0.0   0.0   0.0   0.0   ----- 
Wed 16:30  NNW 15/ 26  31.0 19.0  1007.8    0.0   0.0   0.0   0.0   ----- 
Wed 17:00    N 15/ 20  30.8 19.2  1007.8    0.0   0.0   0.0   0.0   ----- 
Wed 17:30    N 11/ 19  30.3 19.0  1007.9    0.0   0.0   0.0   0.0   ----- 
Wed 18:00    N 13/ 20  29.6 19.6  1008.1    0.0   0.0   0.0   0.0   ----- 
Wed 18:30    N 11/ 17  28.5 20.2  1008.4    0.0   0.0   0.0   0.0   ----- 
Wed 19:00    N  9/ 17  27.7 20.8  1008.9    0.0   0.0   0.0   0.0   ----- 
Wed 19:30    N 11/ 20  27.4 21.4  1009.3    0.0   0.0   0.0   0.0   ----- 
Wed 20:00    N 11/ 19  27.1 22.1  1010.0    0.0   0.0   0.0   0.0   ----- 

PORT KEATS AIRPORT

Site: 014948
Alt: 28.0m
137km WSW of NAUIYU (DALY RIVER)


  Time     Wind        Temp  DP   Baro     Rain since   Rain past  Vis(m), Cloud(base in m), Weather
  local        km/h                         9am  last   hr   10m    
Wed 14:30  NNW 17/ 24  33.2 13.3  1009.7    0.0   0.0   0.0   0.0   ----- 
Wed 15:00   NW 19/ 24  32.3 14.0  1009.3    0.0   0.0   0.0   0.0   ----- 
Wed 15:30  WNW 15/ 24  32.0 12.3  1008.9    0.0   0.0   0.0   0.0   ----- 
Wed 16:00  NNW 19/ 24  32.1 14.7  1008.7    0.0   0.0   0.0   0.0   ----- 
Wed 16:30  NNW 17/ 26  31.4 16.2  1008.5    0.0   0.0   0.0   0.0   ----- 
Wed 17:00   NW 15/ 20  31.0 15.0  1008.5    0.0   0.0   0.0   0.0   ----- 
Wed 17:30  WNW 13/ 19  30.7 14.8  1008.4    0.0   0.0   0.0   0.0   ----- 
Wed 18:00    W 11/ 15  29.8 17.3  1008.7    0.0   0.0   0.0   0.0   ----- 
Wed 18:30  WNW  9/ 15  28.6 18.7  1008.9    0.0   0.0   0.0   0.0   ----- 
Wed 19:00  WNW  7/ 13  27.5 19.8  1009.0    0.0   0.0   0.0   0.0   ----- 
Wed 19:30  WNW  7/  9  27.0 20.1  1009.6    0.0   0.0   0.0   0.0   ----- 
Wed 20:00  WNW  6/  7  26.5 20.1  1010.0    0.0   0.0   0.0   0.0   ----- 

TINDAL RAAF

Site: 014932
Alt: 133.6m
98km SE of PINE CREEK


  Time     Wind        Temp  DP   Baro     Rain since   Rain past  Vis(m), Cloud(base in m), Weather
  local        km/h                         9am  last   hr   10m    
Wed 14:30    E 11/ 19  36.4 -0.1  1009.1    0.0   0.0   0.0   0.0   10000 
Wed 15:00    E 19/ 30  37.6 -0.6  1008.7    0.0   0.0   0.0   0.0   10000 
Wed 15:30    N  6/ 13  37.4 -0.8  1008.4    0.0   0.0   0.0   0.0   10000 
Wed 16:00  ESE 22/ 33  36.8 -1.2  1007.9    0.0   0.0   0.0   0.0   10000 
Wed 16:30   SE 19/ 26  36.7 -1.3  1007.8    0.0   0.0   0.0   0.0   10000 
Wed 17:00  SSE 17/ 24  36.4 -1.5  1007.9    0.0   0.0   0.0   0.0   10000 
Wed 17:30  ESE 17/ 22  36.2 -3.3  1008.1    0.0   0.0   0.0   0.0   10000 
Wed 18:00    E 15/ 24  35.2 -2.4  1008.3    0.0   0.0   0.0   0.0   10000 
Wed 18:30    E 15/ 22  33.2 -1.2  1008.8    0.0   0.0   0.0   0.0   10000 
Wed 19:00    E 11/ 13  31.5 -1.3  1009.1    0.0   0.0   0.0   0.0   10000 
Wed 19:30  ESE  9/ 11  29.5  1.1  1009.6    0.0   0.0   0.0   0.0   10000 
Wed 20:00    E 13/ 17  30.0  0.6  1010.2    0.0   0.0   0.0   0.0   10000 

VICTORIA RIVER DOWNS

Site: 014825
Alt: 88.5m
117km N of KALKARINDJI


  Time     Wind        Temp  DP   Baro     Rain since   Rain past  Vis(m), Cloud(base in m), Weather
  local        km/h                         9am  last   hr   10m    
Wed 14:30    N  9/ 19  37.3  1.9  1008.5    0.0   0.0   0.0   0.0   ----- 
Wed 15:00  ENE 11/ 17  37.1  1.8  1008.1    0.0   0.0   0.0   0.0   ----- 
Wed 15:30  SSE  7/ 11  37.2  1.8  1007.7    0.0   0.0   0.0   0.0   ----- 
Wed 16:00    W 11/ 17  37.2  1.8  1007.5    0.0   0.0   0.0   0.0   ----- 
Wed 16:30    W  7/ 11  37.6  2.1  1007.3    0.0   0.0   0.0   0.0   ----- 
Wed 17:00    S  7/ 19  37.3  0.6  1007.3    0.0   0.0   0.0   0.0   ----- 
Wed 17:30   NE  9/ 15  37.3  0.6  1007.4    0.0   0.0   0.0   0.0   ----- 
Wed 18:00  NNE  7/  9  36.2  1.1  1007.6    0.0   0.0   0.0   0.0   ----- 
Wed 18:30  NNE  6/  7  34.7  3.3  1008.0    0.0   0.0   0.0   0.0   ----- 
Wed 19:00   NE  7/  7  32.6  2.6  1008.3    0.0   0.0   0.0   0.0   ----- 
Wed 19:30  ENE  4/  6  30.5  2.7  1008.8    0.0   0.0   0.0   0.0   ----- 
Wed 20:00    C  0/  0  28.0  5.0  1009.1    0.0   0.0   0.0   0.0   ----- 

WARRUWI AIRPORT

Site: 014401
Alt: 19.2m
124km NNE of JABIRU


  Time     Wind        Temp  DP   Baro     Rain since   Rain past  Vis(m), Cloud(base in m), Weather
  local        km/h                         9am  last   hr   10m    
Wed 14:30    E 17/ 22  29.5 21.4  1010.4   ----  ----  ----   0.0   ----- 
Wed 15:00    E 17/ 24  29.0 21.2  1009.9   ----  ----  ----   0.0   ----- 
Wed 16:00  ENE 13/ 22  29.6 19.6  1009.4   ----  ----  ----   0.0   ----- 
Wed 16:30   NE 11/ 22  29.2 19.5  1009.3   ----  ----  ----   0.0   ----- 
Wed 17:00   NE  9/ 19  28.9 19.8  1009.1   ----  ----  ----   0.0   ----- 
Wed 17:30  ENE 11/ 19  28.3 19.0  1009.2   ----  ----  ----   0.0   ----- 
Wed 18:00   NE  7/ 11  27.6 19.4  1009.4   ----  ----  ----   0.0   ----- 
Wed 18:30  ENE  9/ 15  26.9 20.0  1009.7   ----  ----  ----   0.0   ----- 
Wed 19:00   NE  6/ 11  26.5 20.6  1010.1   ----  ----  ----   0.0   ----- 
Wed 19:30   NE  7/ 13  26.3 21.1  1010.4   ----  ----  ----   0.0   ----- 
Wed 20:00   NE  6/ 11  26.1 21.3  1010.8   ----  ----  ----   0.0   -----